sensor_id;sensor_type;location;lat;lon;timestamp;pressure;altitude;pressure_sealevel;temperature;humidity
28267;BME280;15525;45.568;5.448;2022-10-28T00:02:05;98934.19;;;20.82;61.00
28267;BME280;15525;45.568;5.448;2022-10-28T00:04:31;98929.22;;;20.75;61.48
28267;BME280;15525;45.568;5.448;2022-10-28T00:06:56;98918.16;;;20.72;61.37
28267;BME280;15525;45.568;5.448;2022-10-28T00:09:21;98918.50;;;20.79;61.24
28267;BME280;15525;45.568;5.448;2022-10-28T00:11:47;98916.28;;;20.81;61.10
28267;BME280;15525;45.568;5.448;2022-10-28T00:14:12;98922.25;;;20.92;61.10
28267;BME280;15525;45.568;5.448;2022-10-28T00:16:39;98920.13;;;20.88;60.80
28267;BME280;15525;45.568;5.448;2022-10-28T00:19:06;98921.22;;;20.87;61.08
28267;BME280;15525;45.568;5.448;2022-10-28T00:21:34;98930.28;;;20.97;60.88
28267;BME280;15525;45.568;5.448;2022-10-28T00:24:00;98930.91;;;20.94;61.28
28267;BME280;15525;45.568;5.448;2022-10-28T00:26:28;98927.81;;;20.86;61.44
28267;BME280;15525;45.568;5.448;2022-10-28T00:28:59;98929.41;;;20.87;61.55
28267;BME280;15525;45.568;5.448;2022-10-28T00:31:26;98924.75;;;20.79;61.42
28267;BME280;15525;45.568;5.448;2022-10-28T00:33:52;98923.91;;;20.70;61.65
28267;BME280;15525;45.568;5.448;2022-10-28T00:38:46;98938.03;;;20.81;61.89
28267;BME280;15525;45.568;5.448;2022-10-28T00:41:15;98927.47;;;20.79;61.95
28267;BME280;15525;45.568;5.448;2022-10-28T00:43:47;98925.22;;;20.81;62.00
28267;BME280;15525;45.568;5.448;2022-10-28T00:48:51;98924.47;;;20.89;61.69
28267;BME280;15525;45.568;5.448;2022-10-28T00:51:20;98920.13;;;20.88;62.05
28267;BME280;15525;45.568;5.448;2022-10-28T00:53:47;98917.66;;;20.78;61.68
28267;BME280;15525;45.568;5.448;2022-10-28T00:56:15;98921.38;;;20.82;62.08
28267;BME280;15525;45.568;5.448;2022-10-28T00:58:41;98921.50;;;20.77;62.10
28267;BME280;15525;45.568;5.448;2022-10-28T01:01:07;98916.06;;;20.77;61.93
28267;BME280;15525;45.568;5.448;2022-10-28T01:03:32;98915.59;;;20.75;62.23
28267;BME280;15525;45.568;5.448;2022-10-28T01:05:59;98934.19;;;20.82;62.22
28267;BME280;15525;45.568;5.448;2022-10-28T01:08:25;98909.50;;;20.78;61.91
28267;BME280;15525;45.568;5.448;2022-10-28T01:17:03;98911.47;;;20.86;61.74
28267;BME280;15525;45.568;5.448;2022-10-28T01:22:23;98899.28;;;20.75;61.50
28267;BME280;15525;45.568;5.448;2022-10-28T01:27:30;98904.56;;;20.80;61.54
28267;BME280;15525;45.568;5.448;2022-10-28T01:30:06;98907.28;;;20.80;61.28
28267;BME280;15525;45.568;5.448;2022-10-28T01:38:39;98915.63;;;20.84;61.19
28267;BME280;15525;45.568;5.448;2022-10-28T01:40:54;98917.41;;;20.88;61.15
28267;BME280;15525;45.568;5.448;2022-10-28T01:52:28;98910.19;;;20.84;61.01
28267;BME280;15525;45.568;5.448;2022-10-28T01:55:08;98904.06;;;20.78;60.96
28267;BME280;15525;45.568;5.448;2022-10-28T01:57:37;98898.44;;;20.75;61.02
28267;BME280;15525;45.568;5.448;2022-10-28T02:00:06;98899.69;;;20.60;61.20
28267;BME280;15525;45.568;5.448;2022-10-28T02:02:35;98893.34;;;20.43;61.82
28267;BME280;15525;45.568;5.448;2022-10-28T02:13:20;98889.56;;;20.52;61.19
28267;BME280;15525;45.568;5.448;2022-10-28T02:15:55;98897.88;;;20.56;61.47
28267;BME280;15525;45.568;5.448;2022-10-28T02:23:45;98882.00;;;20.49;61.38
28267;BME280;15525;45.568;5.448;2022-10-28T02:26:22;98886.66;;;20.49;61.24
28267;BME280;15525;45.568;5.448;2022-10-28T02:31:31;98867.09;;;20.38;61.46
28267;BME280;15525;45.568;5.448;2022-10-28T02:34:03;98870.78;;;20.42;61.19
28267;BME280;15525;45.568;5.448;2022-10-28T02:36:35;98862.13;;;20.40;61.43
28267;BME280;15525;45.568;5.448;2022-10-28T02:39:03;98874.34;;;20.51;61.08
28267;BME280;15525;45.568;5.448;2022-10-28T02:41:40;98872.94;;;20.54;61.43
28267;BME280;15525;45.568;5.448;2022-10-28T02:44:12;98863.72;;;20.41;61.43
28267;BME280;15525;45.568;5.448;2022-10-28T02:46:42;98874.84;;;20.53;61.29
28267;BME280;15525;45.568;5.448;2022-10-28T02:49:11;98857.81;;;20.39;62.20
28267;BME280;15525;45.568;5.448;2022-10-28T02:51:59;98870.84;;;20.59;62.28
28267;BME280;15525;45.568;5.448;2022-10-28T02:54:58;98863.47;;;20.51;61.98
28267;BME280;15525;45.568;5.448;2022-10-28T02:57:25;98871.97;;;20.58;61.97
28267;BME280;15525;45.568;5.448;2022-10-28T02:59:56;98854.03;;;20.49;62.13
28267;BME280;15525;45.568;5.448;2022-10-28T03:02:23;98879.16;;;20.54;61.93
28267;BME280;15525;45.568;5.448;2022-10-28T03:04:49;98883.00;;;20.53;62.30
28267;BME280;15525;45.568;5.448;2022-10-28T03:07:14;98876.25;;;20.51;61.87
28267;BME280;15525;45.568;5.448;2022-10-28T03:09:40;98868.41;;;20.49;62.36
28267;BME280;15525;45.568;5.448;2022-10-28T03:12:05;98873.84;;;20.49;62.08
28267;BME280;15525;45.568;5.448;2022-10-28T03:14:30;98865.50;;;20.46;62.26
28267;BME280;15525;45.568;5.448;2022-10-28T03:16:56;98867.09;;;20.38;62.20
28267;BME280;15525;45.568;5.448;2022-10-28T03:19:21;98868.00;;;20.34;62.33
28267;BME280;15525;45.568;5.448;2022-10-28T03:21:47;98868.50;;;20.36;62.21
28267;BME280;15525;45.568;5.448;2022-10-28T03:24:12;98861.94;;;20.37;62.15
28267;BME280;15525;45.568;5.448;2022-10-28T03:26:37;98877.38;;;20.50;62.13
28267;BME280;15525;45.568;5.448;2022-10-28T03:29:03;98870.78;;;20.42;62.31
28267;BME280;15525;45.568;5.448;2022-10-28T03:31:28;98877.31;;;20.41;62.19
28267;BME280;15525;45.568;5.448;2022-10-28T03:33:53;98858.94;;;20.38;62.34
28267;BME280;15525;45.568;5.448;2022-10-28T03:36:19;98863.72;;;20.41;62.10
28267;BME280;15525;45.568;5.448;2022-10-28T03:38:44;98864.69;;;20.45;61.81
28267;BME280;15525;45.568;5.448;2022-10-28T03:41:10;98876.25;;;20.51;62.06
28267;BME280;15525;45.568;5.448;2022-10-28T03:43:35;98872.25;;;20.48;61.82
28267;BME280;15525;45.568;5.448;2022-10-28T03:46:01;98863.84;;;20.36;61.93
28267;BME280;15525;45.568;5.448;2022-10-28T03:48:26;98865.78;;;20.36;62.13
28267;BME280;15525;45.568;5.448;2022-10-28T03:50:52;98886.13;;;20.38;62.09
28267;BME280;15525;45.568;5.448;2022-10-28T03:53:18;98899.91;;;20.42;62.22
28267;BME280;15525;45.568;5.448;2022-10-28T03:55:51;98876.00;;;20.30;62.05
28267;BME280;15525;45.568;5.448;2022-10-28T03:58:16;98879.53;;;20.31;62.42
28267;BME280;15525;45.568;5.448;2022-10-28T04:00:41;98858.16;;;20.16;62.46
28267;BME280;15525;45.568;5.448;2022-10-28T04:03:07;98868.44;;;20.27;62.44
28267;BME280;15525;45.568;5.448;2022-10-28T04:05:32;98863.69;;;20.33;62.22
28267;BME280;15525;45.568;5.448;2022-10-28T04:07:57;98856.47;;;20.28;62.24
28267;BME280;15525;45.568;5.448;2022-10-28T04:10:23;98849.06;;;20.20;62.31
28267;BME280;15525;45.568;5.448;2022-10-28T04:12:48;98863.22;;;20.31;62.41
28267;BME280;15525;45.568;5.448;2022-10-28T04:15:14;98855.28;;;20.21;62.41
28267;BME280;15525;45.568;5.448;2022-10-28T04:17:39;98854.00;;;20.18;62.43
28267;BME280;15525;45.568;5.448;2022-10-28T04:20:05;98857.94;;;20.34;62.09
28267;BME280;15525;45.568;5.448;2022-10-28T04:22:31;98863.25;;;20.39;62.22
28267;BME280;15525;45.568;5.448;2022-10-28T04:24:56;98860.84;;;20.46;62.12
28267;BME280;15525;45.568;5.448;2022-10-28T04:27:22;98859.09;;;20.42;61.75
28267;BME280;15525;45.568;5.448;2022-10-28T04:29:47;98865.84;;;20.53;61.91
28267;BME280;15525;45.568;5.448;2022-10-28T04:32:12;98847.91;;;20.43;61.91
28267;BME280;15525;45.568;5.448;2022-10-28T04:34:38;98867.13;;;20.47;62.12
28267;BME280;15525;45.568;5.448;2022-10-28T04:37:03;98867.94;;;20.47;62.26
28267;BME280;15525;45.568;5.448;2022-10-28T04:39:29;98899.69;;;20.60;61.93
28267;BME280;15525;45.568;5.448;2022-10-28T04:41:54;98880.25;;;20.45;61.96
28267;BME280;15525;45.568;5.448;2022-10-28T04:44:19;98869.22;;;20.50;62.14
28267;BME280;15525;45.568;5.448;2022-10-28T04:46:45;98872.38;;;20.43;62.13
28267;BME280;15525;45.568;5.448;2022-10-28T04:49:11;98866.44;;;20.41;62.16
28267;BME280;15525;45.568;5.448;2022-10-28T04:51:38;98851.53;;;20.39;62.43
28267;BME280;15525;45.568;5.448;2022-10-28T04:54:03;98856.06;;;20.43;62.04
28267;BME280;15525;45.568;5.448;2022-10-28T04:56:29;98860.63;;;20.56;62.13
28267;BME280;15525;45.568;5.448;2022-10-28T04:58:57;98831.63;;;20.52;61.93
28267;BME280;15525;45.568;5.448;2022-10-28T05:01:22;98832.72;;;20.42;61.92
28267;BME280;15525;45.568;5.448;2022-10-28T05:03:48;98862.66;;;20.51;62.19
28267;BME280;15525;45.568;5.448;2022-10-28T05:06:13;98854.63;;;20.46;61.78
28267;BME280;15525;45.568;5.448;2022-10-28T05:08:38;98866.63;;;20.45;62.08
28267;BME280;15525;45.568;5.448;2022-10-28T05:11:04;98878.97;;;20.51;61.87
28267;BME280;15525;45.568;5.448;2022-10-28T05:13:29;98869.88;;;20.55;61.88
28267;BME280;15525;45.568;5.448;2022-10-28T05:15:55;98868.91;;;20.51;61.90
28267;BME280;15525;45.568;5.448;2022-10-28T05:18:20;98869.53;;;20.48;61.77
28267;BME280;15525;45.568;5.448;2022-10-28T05:20:45;98885.72;;;20.53;61.99
28267;BME280;15525;45.568;5.448;2022-10-28T05:23:11;98873.38;;;20.47;61.99
28267;BME280;15525;45.568;5.448;2022-10-28T05:25:36;98866.00;;;20.48;62.08
28267;BME280;15525;45.568;5.448;2022-10-28T05:28:02;98874.22;;;20.56;61.84
28267;BME280;15525;45.568;5.448;2022-10-28T05:30:27;98873.69;;;20.46;61.94
28267;BME280;15525;45.568;5.448;2022-10-28T05:33:00;98864.91;;;20.49;62.19
28267;BME280;15525;45.568;5.448;2022-10-28T05:35:27;98862.94;;;20.41;61.92
28267;BME280;15525;45.568;5.448;2022-10-28T05:37:52;98865.16;;;20.39;62.03
28267;BME280;15525;45.568;5.448;2022-10-28T05:40:18;98892.66;;;20.37;62.04
28267;BME280;15525;45.568;5.448;2022-10-28T05:42:43;98886.59;;;20.40;62.17
28267;BME280;15525;45.568;5.448;2022-10-28T05:45:09;98881.47;;;20.39;61.96
28267;BME280;15525;45.568;5.448;2022-10-28T05:47:34;98869.81;;;20.38;62.12
28267;BME280;15525;45.568;5.448;2022-10-28T05:50:00;98876.41;;;20.46;61.74
28267;BME280;15525;45.568;5.448;2022-10-28T05:52:25;98879.44;;;20.44;61.52
28267;BME280;15525;45.568;5.448;2022-10-28T05:54:51;98872.72;;;20.50;61.68
28267;BME280;15525;45.568;5.448;2022-10-28T05:57:16;98870.81;;;20.51;61.61
28267;BME280;15525;45.568;5.448;2022-10-28T05:59:42;98866.94;;;20.43;61.52
28267;BME280;15525;45.568;5.448;2022-10-28T06:02:12;98882.63;;;20.46;61.90
28267;BME280;15525;45.568;5.448;2022-10-28T06:04:38;98886.00;;;20.43;62.13
28267;BME280;15525;45.568;5.448;2022-10-28T06:07:03;98897.75;;;20.30;62.04
28267;BME280;15525;45.568;5.448;2022-10-28T06:09:29;98886.88;;;20.30;62.08
28267;BME280;15525;45.568;5.448;2022-10-28T06:11:54;98873.41;;;20.25;62.13
28267;BME280;15525;45.568;5.448;2022-10-28T06:14:20;98859.25;;;20.15;61.99
28267;BME280;15525;45.568;5.448;2022-10-28T06:16:45;98862.16;;;20.18;62.24
28267;BME280;15525;45.568;5.448;2022-10-28T06:19:10;98869.69;;;20.21;61.94
28267;BME280;15525;45.568;5.448;2022-10-28T06:21:36;98864.88;;;20.18;62.01
28267;BME280;15525;45.568;5.448;2022-10-28T06:24:01;98878.84;;;20.25;61.69
28267;BME280;15525;45.568;5.448;2022-10-28T06:26:26;98878.97;;;20.20;62.14
28267;BME280;15525;45.568;5.448;2022-10-28T06:28:52;98897.19;;;20.20;61.99
28267;BME280;15525;45.568;5.448;2022-10-28T06:31:17;98902.16;;;20.18;61.46
28267;BME280;15525;45.568;5.448;2022-10-28T06:33:42;98923.28;;;20.21;61.46
28267;BME280;15525;45.568;5.448;2022-10-28T06:36:08;98912.44;;;20.07;61.83
28267;BME280;15525;45.568;5.448;2022-10-28T06:38:33;98897.75;;;20.08;61.58
28267;BME280;15525;45.568;5.448;2022-10-28T06:40:59;98912.44;;;20.07;61.51
28267;BME280;15525;45.568;5.448;2022-10-28T06:43:25;98918.91;;;20.11;61.79
28267;BME280;15525;45.568;5.448;2022-10-28T06:45:50;98907.59;;;20.04;61.89
28267;BME280;15525;45.568;5.448;2022-10-28T06:48:20;98907.59;;;20.04;61.89
28267;BME280;15525;45.568;5.448;2022-10-28T06:50:46;98885.81;;;19.96;61.95
28267;BME280;15525;45.568;5.448;2022-10-28T06:53:11;98903.28;;;20.03;61.86
28267;BME280;15525;45.568;5.448;2022-10-28T06:55:36;98930.94;;;20.19;61.58
28267;BME280;15525;45.568;5.448;2022-10-28T06:58:02;98928.53;;;20.17;61.54
28267;BME280;15525;45.568;5.448;2022-10-28T07:00:29;98936.44;;;20.27;61.63
28267;BME280;15525;45.568;5.448;2022-10-28T07:02:55;98937.38;;;20.23;61.66
28267;BME280;15525;45.568;5.448;2022-10-28T07:05:22;98944.06;;;20.17;61.40
28267;BME280;15525;45.568;5.448;2022-10-28T07:07:48;98941.00;;;20.18;61.43
28267;BME280;15525;45.568;5.448;2022-10-28T07:10:14;98922.47;;;20.20;61.22
28267;BME280;15525;45.568;5.448;2022-10-28T07:12:39;98933.59;;;20.32;61.34
28267;BME280;15525;45.568;5.448;2022-10-28T07:15:05;98926.06;;;20.29;61.30
28267;BME280;15525;45.568;5.448;2022-10-28T07:17:31;98952.00;;;20.35;61.18
28267;BME280;15525;45.568;5.448;2022-10-28T07:19:56;98940.69;;;20.42;61.22
28267;BME280;15525;45.568;5.448;2022-10-28T07:22:21;98951.13;;;20.48;60.83
28267;BME280;15525;45.568;5.448;2022-10-28T07:24:47;98961.00;;;20.36;61.07
28267;BME280;15525;45.568;5.448;2022-10-28T07:27:12;98965.75;;;20.30;60.86
28267;BME280;15525;45.568;5.448;2022-10-28T07:29:38;98959.44;;;20.21;61.32
28267;BME280;15525;45.568;5.448;2022-10-28T07:32:03;98985.47;;;20.36;60.97
28267;BME280;15525;45.568;5.448;2022-10-28T07:34:29;98978.09;;;20.36;60.73
28267;BME280;15525;45.568;5.448;2022-10-28T07:36:55;98980.69;;;20.41;60.69
28267;BME280;15525;45.568;5.448;2022-10-28T07:39:20;98983.41;;;20.63;60.16
28267;BME280;15525;45.568;5.448;2022-10-28T07:41:46;98997.78;;;20.86;60.09
28267;BME280;15525;45.568;5.448;2022-10-28T07:44:12;98984.41;;;20.98;59.46
28267;BME280;15525;45.568;5.448;2022-10-28T07:46:38;98988.44;;;21.01;59.49
28267;BME280;15525;45.568;5.448;2022-10-28T07:49:03;98989.78;;;21.12;59.66
28267;BME280;15525;45.568;5.448;2022-10-28T07:51:29;98998.41;;;21.14;59.52
28267;BME280;15525;45.568;5.448;2022-10-28T07:53:55;98993.81;;;21.23;59.58
28267;BME280;15525;45.568;5.448;2022-10-28T07:56:21;98998.50;;;21.31;59.39
28267;BME280;15525;45.568;5.448;2022-10-28T07:58:47;98999.16;;;21.36;59.05
28267;BME280;15525;45.568;5.448;2022-10-28T08:01:15;98992.31;;;21.47;59.00
28267;BME280;15525;45.568;5.448;2022-10-28T08:03:41;99003.56;;;21.63;58.64
28267;BME280;15525;45.568;5.448;2022-10-28T08:06:13;98978.22;;;21.62;58.87
28267;BME280;15525;45.568;5.448;2022-10-28T08:08:42;99006.38;;;21.80;58.76
28267;BME280;15525;45.568;5.448;2022-10-28T08:11:09;99008.78;;;21.90;58.45
28267;BME280;15525;45.568;5.448;2022-10-28T08:13:35;99005.25;;;21.98;58.50
28267;BME280;15525;45.568;5.448;2022-10-28T08:16:00;98992.75;;;22.05;58.23
28267;BME280;15525;45.568;5.448;2022-10-28T08:18:25;98985.22;;;22.02;58.44
28267;BME280;15525;45.568;5.448;2022-10-28T08:20:51;98976.22;;;22.02;58.59
28267;BME280;15525;45.568;5.448;2022-10-28T08:23:16;98992.13;;;22.17;58.62
28267;BME280;15525;45.568;5.448;2022-10-28T08:25:48;98980.53;;;22.20;58.82
28267;BME280;15525;45.568;5.448;2022-10-28T08:28:14;98977.66;;;22.25;58.82
28267;BME280;15525;45.568;5.448;2022-10-28T08:30:39;98985.66;;;22.30;58.44
28267;BME280;15525;45.568;5.448;2022-10-28T08:33:05;98976.53;;;22.34;58.49
28267;BME280;15525;45.568;5.448;2022-10-28T08:35:30;98985.69;;;22.47;58.51
28267;BME280;15525;45.568;5.448;2022-10-28T08:37:55;98984.41;;;22.36;58.68
28267;BME280;15525;45.568;5.448;2022-10-28T08:40:30;98976.88;;;22.41;58.47
28267;BME280;15525;45.568;5.448;2022-10-28T08:43:03;98993.25;;;22.50;58.63
28267;BME280;15525;45.568;5.448;2022-10-28T08:48:22;98997.88;;;22.41;58.89
28267;BME280;15525;45.568;5.448;2022-10-28T08:51:15;98990.66;;;22.45;58.42
28267;BME280;15525;45.568;5.448;2022-10-28T08:53:46;98986.47;;;22.30;58.52
28267;BME280;15525;45.568;5.448;2022-10-28T08:56:41;98999.34;;;22.47;58.42
28267;BME280;15525;45.568;5.448;2022-10-28T08:59:28;98989.94;;;22.99;57.67
28267;BME280;15525;45.568;5.448;2022-10-28T09:01:59;98993.84;;;23.18;56.97
28267;BME280;15525;45.568;5.448;2022-10-28T09:04:44;98996.47;;;23.52;56.27
28267;BME280;15525;45.568;5.448;2022-10-28T09:07:15;98988.41;;;23.56;56.13
28267;BME280;15525;45.568;5.448;2022-10-28T09:09:42;98988.13;;;23.78;55.59
28267;BME280;15525;45.568;5.448;2022-10-28T09:16:35;98993.28;;;24.61;54.00
28267;BME280;15525;45.568;5.448;2022-10-28T09:18:41;98990.84;;;24.92;53.65
28267;BME280;15525;45.568;5.448;2022-10-28T09:21:14;98986.59;;;25.27;52.20
28267;BME280;15525;45.568;5.448;2022-10-28T09:23:51;98968.59;;;24.82;53.78
28267;BME280;15525;45.568;5.448;2022-10-28T09:29:05;98979.88;;;24.92;54.25
28267;BME280;15525;45.568;5.448;2022-10-28T09:31:52;98975.03;;;25.10;53.51
28267;BME280;15525;45.568;5.448;2022-10-28T09:34:58;98975.47;;;25.12;53.49
28267;BME280;15525;45.568;5.448;2022-10-28T09:37:34;98978.44;;;25.07;53.60
28267;BME280;15525;45.568;5.448;2022-10-28T09:40:14;98995.75;;;25.31;53.41
28267;BME280;15525;45.568;5.448;2022-10-28T09:43:01;98991.84;;;25.56;52.24
28267;BME280;15525;45.568;5.448;2022-10-28T09:45:31;98994.59;;;25.80;52.25
28267;BME280;15525;45.568;5.448;2022-10-28T09:50:37;98990.00;;;25.96;51.87
28267;BME280;15525;45.568;5.448;2022-10-28T09:53:15;98995.06;;;26.22;51.57
28267;BME280;15525;45.568;5.448;2022-10-28T09:55:43;98970.34;;;26.34;51.01
28267;BME280;15525;45.568;5.448;2022-10-28T09:58:10;98986.47;;;26.35;50.79
28267;BME280;15525;45.568;5.448;2022-10-28T10:00:36;98994.97;;;26.58;50.19
28267;BME280;15525;45.568;5.448;2022-10-28T10:03:02;98983.88;;;26.54;49.90
28267;BME280;15525;45.568;5.448;2022-10-28T10:05:30;98957.16;;;26.67;49.52
28267;BME280;15525;45.568;5.448;2022-10-28T10:08:02;98972.53;;;26.56;49.51
28267;BME280;15525;45.568;5.448;2022-10-28T10:11:01;98966.22;;;26.67;47.86
28267;BME280;15525;45.568;5.448;2022-10-28T10:13:34;98965.19;;;27.03;48.67
28267;BME280;15525;45.568;5.448;2022-10-28T10:16:05;98960.25;;;27.24;48.41
28267;BME280;15525;45.568;5.448;2022-10-28T10:18:37;98953.66;;;27.28;47.90
28267;BME280;15525;45.568;5.448;2022-10-28T10:21:06;98959.59;;;27.15;47.92
28267;BME280;15525;45.568;5.448;2022-10-28T10:23:34;98969.63;;;27.54;47.16
28267;BME280;15525;45.568;5.448;2022-10-28T10:26:03;98972.88;;;27.75;46.80
28267;BME280;15525;45.568;5.448;2022-10-28T10:28:31;98951.34;;;27.46;46.96
28267;BME280;15525;45.568;5.448;2022-10-28T10:30:59;98950.94;;;27.78;46.59
28267;BME280;15525;45.568;5.448;2022-10-28T10:33:37;98944.44;;;27.36;46.28
28267;BME280;15525;45.568;5.448;2022-10-28T10:38:35;98972.69;;;27.83;46.21
28267;BME280;15525;45.568;5.448;2022-10-28T10:41:02;98964.47;;;28.02;45.64
28267;BME280;15525;45.568;5.448;2022-10-28T10:43:32;98942.53;;;28.25;45.13
28267;BME280;15525;45.568;5.448;2022-10-28T10:48:36;98936.41;;;28.35;44.69
28267;BME280;15525;45.568;5.448;2022-10-28T10:51:25;98939.25;;;28.00;44.89
28267;BME280;15525;45.568;5.448;2022-10-28T10:53:55;98933.16;;;27.76;46.18
28267;BME280;15525;45.568;5.448;2022-10-28T10:56:24;98936.50;;;27.66;46.39
28267;BME280;15525;45.568;5.448;2022-10-28T10:58:51;98939.03;;;27.40;46.53
28267;BME280;15525;45.568;5.448;2022-10-28T11:01:21;98949.28;;;27.58;46.39
28267;BME280;15525;45.568;5.448;2022-10-28T11:03:51;98945.91;;;27.65;45.86
28267;BME280;15525;45.568;5.448;2022-10-28T11:06:25;98947.09;;;27.83;45.54
28267;BME280;15525;45.568;5.448;2022-10-28T11:09:00;98932.06;;;27.96;45.11
28267;BME280;15525;45.568;5.448;2022-10-28T11:14:16;98949.97;;;27.86;45.68
28267;BME280;15525;45.568;5.448;2022-10-28T11:16:55;98947.28;;;28.09;45.42
28267;BME280;15525;45.568;5.448;2022-10-28T11:19:23;98938.66;;;28.10;45.73
28267;BME280;15525;45.568;5.448;2022-10-28T11:27:44;98953.44;;;28.02;46.25
28267;BME280;15525;45.568;5.448;2022-10-28T11:30:20;98942.50;;;27.71;46.36
28267;BME280;15525;45.568;5.448;2022-10-28T11:33:05;98953.16;;;27.73;46.91
28267;BME280;15525;45.568;5.448;2022-10-28T11:43:34;98905.25;;;27.58;47.06
28267;BME280;15525;45.568;5.448;2022-10-28T11:56:46;98889.84;;;28.68;45.68
28267;BME280;15525;45.568;5.448;2022-10-28T12:18:16;98878.78;;;29.62;43.72
28267;BME280;15525;45.568;5.448;2022-10-28T12:23:19;98865.38;;;30.63;41.26
28267;BME280;15525;45.568;5.448;2022-10-28T12:25:50;98866.72;;;30.76;41.51
28267;BME280;15525;45.568;5.448;2022-10-28T12:28:21;98863.41;;;30.63;41.65
28267;BME280;15525;45.568;5.448;2022-10-28T12:30:50;98862.09;;;30.50;42.00
28267;BME280;15525;45.568;5.448;2022-10-28T12:33:27;98851.34;;;30.82;41.00
28267;BME280;15525;45.568;5.448;2022-10-28T12:38:34;98839.97;;;30.90;41.18
28267;BME280;15525;45.568;5.448;2022-10-28T12:41:10;98843.13;;;30.49;42.14
28267;BME280;15525;45.568;5.448;2022-10-28T12:43:43;98844.59;;;30.06;42.33
28267;BME280;15525;45.568;5.448;2022-10-28T12:46:46;98848.28;;;30.14;42.25
28267;BME280;15525;45.568;5.448;2022-10-28T12:49:19;98842.94;;;29.98;42.72
28267;BME280;15525;45.568;5.448;2022-10-28T12:51:47;98832.69;;;30.32;42.10
28267;BME280;15525;45.568;5.448;2022-10-28T12:54:15;98839.25;;;30.97;40.65
28267;BME280;15525;45.568;5.448;2022-10-28T12:56:55;98840.56;;;31.13;40.47
28267;BME280;15525;45.568;5.448;2022-10-28T12:59:35;98851.03;;;31.44;39.04
28267;BME280;15525;45.568;5.448;2022-10-28T13:02:04;98836.50;;;31.61;40.20
28267;BME280;15525;45.568;5.448;2022-10-28T13:04:37;98835.50;;;31.94;39.25
28267;BME280;15525;45.568;5.448;2022-10-28T13:10:18;98842.72;;;31.41;40.15
28267;BME280;15525;45.568;5.448;2022-10-28T13:15:23;98835.91;;;30.37;42.03
28267;BME280;15525;45.568;5.448;2022-10-28T13:21:23;98831.63;;;30.10;42.20
28267;BME280;15525;45.568;5.448;2022-10-28T13:26:32;98841.63;;;29.85;43.28
28267;BME280;15525;45.568;5.448;2022-10-28T13:29:01;98834.25;;;29.96;43.15
28267;BME280;15525;45.568;5.448;2022-10-28T13:31:44;98828.47;;;30.08;42.39
28267;BME280;15525;45.568;5.448;2022-10-28T13:34:12;98821.16;;;29.93;43.10
28267;BME280;15525;45.568;5.448;2022-10-28T13:36:40;98820.66;;;30.14;42.76
28267;BME280;15525;45.568;5.448;2022-10-28T13:39:42;98833.44;;;30.69;42.19
28267;BME280;15525;45.568;5.448;2022-10-28T13:44:49;98813.22;;;31.69;40.15
28267;BME280;15525;45.568;5.448;2022-10-28T13:50:30;98797.56;;;32.12;38.79
28267;BME280;15525;45.568;5.448;2022-10-28T13:55:56;98801.38;;;30.61;42.06
28267;BME280;15525;45.568;5.448;2022-10-28T13:58:23;98793.19;;;31.22;40.97
28267;BME280;15525;45.568;5.448;2022-10-28T14:00:50;98803.81;;;31.91;39.97
28267;BME280;15525;45.568;5.448;2022-10-28T14:03:18;98776.94;;;32.20;39.77
28267;BME280;15525;45.568;5.448;2022-10-28T14:08:26;98782.53;;;32.23;38.55
28267;BME280;15525;45.568;5.448;2022-10-28T14:13:25;98797.84;;;31.11;41.35
28267;BME280;15525;45.568;5.448;2022-10-28T14:18:36;98797.09;;;30.27;42.85
28267;BME280;15525;45.568;5.448;2022-10-28T14:21:01;98798.53;;;30.14;42.89
28267;BME280;15525;45.568;5.448;2022-10-28T14:49:57;98799.56;;;31.33;40.82
28267;BME280;15525;45.568;5.448;2022-10-28T14:52:28;98782.75;;;31.73;40.08
28267;BME280;15525;45.568;5.448;2022-10-28T14:54:56;98806.16;;;31.82;39.80
28267;BME280;15525;45.568;5.448;2022-10-28T14:57:28;98795.94;;;32.00;39.93
28267;BME280;15525;45.568;5.448;2022-10-28T14:59:54;98791.97;;;32.05;39.86
28267;BME280;15525;45.568;5.448;2022-10-28T15:02:30;98800.72;;;32.10;39.13
28267;BME280;15525;45.568;5.448;2022-10-28T15:05:13;98785.97;;;31.10;40.69
28267;BME280;15525;45.568;5.448;2022-10-28T15:07:40;98790.69;;;30.56;42.01
28267;BME280;15525;45.568;5.448;2022-10-28T15:12:38;98787.03;;;29.75;43.42
28267;BME280;15525;45.568;5.448;2022-10-28T15:15:16;98774.59;;;29.29;44.29
28267;BME280;15525;45.568;5.448;2022-10-28T15:17:41;98768.13;;;29.18;44.69
28267;BME280;15525;45.568;5.448;2022-10-28T15:20:27;98768.31;;;29.32;44.75
28267;BME280;15525;45.568;5.448;2022-10-28T15:23:09;98755.47;;;29.14;44.91
28267;BME280;15525;45.568;5.448;2022-10-28T15:25:34;98772.09;;;28.95;44.92
28267;BME280;15525;45.568;5.448;2022-10-28T15:28:00;98756.09;;;28.78;45.47
28267;BME280;15525;45.568;5.448;2022-10-28T15:30:26;98768.94;;;28.44;45.38
28267;BME280;15525;45.568;5.448;2022-10-28T15:32:52;98790.19;;;28.43;45.30
28267;BME280;15525;45.568;5.448;2022-10-28T15:38:00;98779.09;;;28.17;44.99
28267;BME280;15525;45.568;5.448;2022-10-28T15:40:26;98781.69;;;27.88;42.30
28267;BME280;15525;45.568;5.448;2022-10-28T15:42:56;98783.94;;;28.05;42.73
28267;BME280;15525;45.568;5.448;2022-10-28T15:45:24;98780.97;;;27.94;44.14
28267;BME280;15525;45.568;5.448;2022-10-28T15:47:50;98783.72;;;27.75;44.70
28267;BME280;15525;45.568;5.448;2022-10-28T15:50:23;98787.88;;;27.66;45.22
28267;BME280;15525;45.568;5.448;2022-10-28T15:52:51;98808.97;;;27.58;45.48
28267;BME280;15525;45.568;5.448;2022-10-28T15:58:25;98811.63;;;27.55;46.30
28267;BME280;15525;45.568;5.448;2022-10-28T16:00:55;98808.28;;;27.46;46.48
28267;BME280;15525;45.568;5.448;2022-10-28T16:03:46;98810.38;;;27.33;46.60
28267;BME280;15525;45.568;5.448;2022-10-28T16:06:21;98807.31;;;27.04;46.77
28267;BME280;15525;45.568;5.448;2022-10-28T16:08:58;98814.53;;;26.93;47.40
28267;BME280;15525;45.568;5.448;2022-10-28T16:11:24;98809.13;;;26.81;47.57